Time;durP1;ratioP1;P1;durP2;ratioP2;P2;SDS_P1;SDS_P2;PMS_P1;PMS_P2;Temp;Humidity;BMP_temperature;BMP_pressure;BME280_temperature;BME280_humidity;BME280_pressure;Samples;Min_cycle;Max_cycle;Signal;HPM_P1;HPM_P2
2022/09/08 00:01:14;;;;;;;0.93;0.70;;;23.90;69.40;24.50;96025.00;;;;5096340;28;20197;-87
2022/09/08 00:03:43;;;;;;;0.73;0.60;;;23.90;70.00;24.40;95997.00;;;;5095891;28;20298;-86
2022/09/08 00:06:13;;;;;;;0.17;0.17;;;23.90;69.90;24.30;95995.00;;;;5088887;28;20216;-87
2022/09/08 00:08:45;;;;;;;2.90;0.40;;;23.80;69.90;24.20;95996.00;;;;5075692;28;20705;-85
2022/09/08 00:11:17;;;;;;;0.73;0.50;;;23.70;70.80;24.00;95991.00;;;;5083131;28;20199;-85
2022/09/08 00:13:46;;;;;;;0.60;0.37;;;23.60;70.30;23.80;95987.00;;;;5087218;28;20279;-86
2022/09/08 00:16:18;;;;;;;0.50;0.47;;;23.50;70.10;23.70;95978.00;;;;5080070;28;20204;-85
2022/09/08 00:18:47;;;;;;;1.30;0.40;;;23.40;70.30;23.50;95972.00;;;;5075162;28;20259;-85
2022/09/08 00:21:14;;;;;;;1.00;0.40;;;23.30;70.80;23.40;95961.00;;;;5078891;28;20200;-85
2022/09/08 00:23:43;;;;;;;0.70;0.50;;;23.20;71.30;23.30;95952.00;;;;5092719;28;20195;-85
2022/09/08 00:26:10;;;;;;;1.67;0.70;;;23.10;71.80;23.30;95941.00;;;;5093372;28;20285;-86
2022/09/08 00:28:37;;;;;;;1.30;0.80;;;23.00;72.00;23.20;95930.00;;;;5095557;28;20225;-85
2022/09/08 00:31:05;;;;;;;0.70;0.43;;;22.90;72.20;23.10;95914.00;;;;5094589;28;20227;-86
2022/09/08 00:33:33;;;;;;;0.80;0.60;;;22.90;72.50;23.10;95914.00;;;;5095353;28;20192;-86
2022/09/08 00:36:02;;;;;;;0.97;0.60;;;22.80;72.90;23.00;95924.00;;;;5095247;28;20260;-86
2022/09/08 00:38:30;;;;;;;1.10;0.50;;;22.70;73.10;23.00;95939.00;;;;5095625;28;20266;-86
2022/09/08 00:40:59;;;;;;;2.40;0.57;;;22.70;73.30;22.90;95938.00;;;;5095760;28;20198;-85
2022/09/08 00:43:38;;;;;;;0.90;0.73;;;22.60;73.40;22.90;95927.00;;;;5095699;28;20200;-86
2022/09/08 00:46:19;;;;;;;0.60;0.60;;;22.50;73.90;22.80;95923.00;;;;5075391;28;20234;-85
2022/09/08 00:48:52;;;;;;;0.83;0.70;;;22.50;73.80;22.80;95916.00;;;;5094437;28;20207;-85
2022/09/08 00:51:22;;;;;;;1.00;0.80;;;22.40;74.10;22.80;95927.00;;;;5087745;28;20580;-86
2022/09/08 00:53:50;;;;;;;1.50;0.70;;;22.40;74.30;22.80;95935.00;;;;5092945;28;20287;-86
2022/09/08 00:56:20;;;;;;;0.70;0.70;;;22.40;74.50;22.80;95936.00;;;;5095125;28;20244;-85
2022/09/08 00:58:48;;;;;;;1.00;0.90;;;22.40;74.70;22.80;95941.00;;;;5094928;28;20676;-86
2022/09/08 01:01:15;;;;;;;0.60;0.60;;;22.30;74.70;22.80;95941.00;;;;5095056;28;20745;-86
2022/09/08 01:03:44;;;;;;;1.53;1.00;;;22.30;74.80;22.80;95947.00;;;;5095181;28;20191;-86
2022/09/08 01:15:11;;;;;;;0.67;0.67;;;22.40;75.10;22.90;95960.00;;;;5069459;28;20331;-86
2022/09/08 01:17:39;;;;;;;1.97;1.00;;;22.40;75.00;22.90;95973.00;;;;5094879;28;20215;-86
2022/09/08 01:20:10;;;;;;;0.97;0.90;;;22.40;75.00;22.90;95971.00;;;;5094681;28;20658;-86
2022/09/08 01:23:06;;;;;;;0.50;0.50;;;22.40;75.10;22.90;95960.00;;;;5095025;28;20231;-86
2022/09/08 01:26:17;;;;;;;1.03;0.70;;;22.40;75.60;22.90;95955.00;;;;5094515;28;20562;-86
2022/09/08 01:28:52;;;;;;;1.57;0.70;;;22.40;75.60;22.90;95970.00;;;;5086935;28;20299;-86
2022/09/08 01:31:21;;;;;;;0.90;0.50;;;22.40;75.20;22.90;95965.00;;;;5074539;28;20641;-85
2022/09/08 01:33:48;;;;;;;1.90;0.60;;;22.40;75.20;22.90;95972.00;;;;5094510;28;20191;-86
2022/09/08 01:36:17;;;;;;;3.37;0.80;;;22.40;75.20;22.90;95979.00;;;;5094679;28;20217;-86
2022/09/08 01:38:46;;;;;;;3.80;1.23;;;22.40;75.20;23.00;95984.00;;;;5094327;28;20706;-85
2022/09/08 01:41:14;;;;;;;1.07;0.70;;;22.40;75.20;23.00;95982.00;;;;5094291;28;20200;-85
2022/09/08 01:43:46;;;;;;;2.40;0.97;;;22.40;75.40;23.00;96006.00;;;;5094285;28;20196;-85
2022/09/08 01:46:13;;;;;;;1.07;0.63;;;22.40;75.50;23.00;95984.00;;;;5093666;28;20242;-85
2022/09/08 01:48:40;;;;;;;0.87;0.70;;;22.40;76.00;23.00;95976.00;;;;5074087;28;20613;-85
2022/09/08 01:51:09;;;;;;;2.00;0.83;;;22.40;75.30;23.00;95973.00;;;;5073998;28;20286;-85
2022/09/08 01:53:36;;;;;;;1.03;0.97;;;22.40;75.50;23.00;95971.00;;;;5091771;28;20274;-86
2022/09/08 01:56:05;;;;;;;1.67;0.90;;;22.40;75.60;23.00;95973.00;;;;5084346;28;20235;-86
2022/09/08 01:58:33;;;;;;;1.07;0.77;;;22.50;75.80;23.00;95959.00;;;;5073805;28;20220;-85
2022/09/08 02:01:02;;;;;;;0.80;0.70;;;22.50;75.80;23.00;95945.00;;;;5079973;28;20195;-86
2022/09/08 02:03:29;;;;;;;0.50;0.50;;;22.50;76.60;23.00;95952.00;;;;5093255;28;20200;-85
2022/09/08 02:06:02;;;;;;;1.20;0.60;;;22.40;75.90;23.00;95998.00;;;;5079760;28;20281;-85
2022/09/08 02:08:30;;;;;;;1.20;0.60;;;22.40;76.20;22.90;96017.00;;;;5080479;28;20222;-86
2022/09/08 02:11:00;;;;;;;1.40;0.70;;;22.40;75.90;22.80;96031.00;;;;5089180;28;20208;-86
2022/09/08 02:13:28;;;;;;;1.07;0.77;;;22.40;76.00;22.80;96029.00;;;;5087258;28;20199;-85
2022/09/08 02:16:07;;;;;;;1.10;0.60;;;22.30;76.20;22.80;96031.00;;;;5093316;28;20233;-86
2022/09/08 02:18:34;;;;;;;0.93;0.70;;;22.30;76.80;22.70;96026.00;;;;5090640;28;20814;-85
2022/09/08 02:21:06;;;;;;;0.70;0.70;;;22.30;76.20;22.70;96010.00;;;;5093215;28;20195;-86
2022/09/08 02:23:33;;;;;;;0.60;0.53;;;22.20;76.20;22.60;96015.00;;;;5091952;28;20211;-86
2022/09/08 02:26:00;;;;;;;1.27;0.70;;;22.20;76.30;22.60;96008.00;;;;5072459;28;20578;-86
2022/09/08 02:28:28;;;;;;;1.00;0.60;;;22.20;76.20;22.60;96011.00;;;;5090233;28;20218;-87
2022/09/08 02:30:59;;;;;;;1.27;0.60;;;22.10;76.30;22.60;96023.00;;;;5093388;28;20199;-86
2022/09/08 02:33:29;;;;;;;1.00;0.83;;;22.10;76.60;22.60;96020.00;;;;5082995;28;20657;-86
2022/09/08 02:35:56;;;;;;;1.37;0.60;;;22.10;76.60;22.60;96016.00;;;;5092567;28;20199;-85
2022/09/08 02:38:25;;;;;;;2.23;0.70;;;22.10;76.60;22.50;96009.00;;;;5093340;28;20579;-85
2022/09/08 02:40:53;;;;;;;1.00;0.60;;;22.00;76.60;22.50;96017.00;;;;5093006;28;20188;-86
2022/09/08 02:43:21;;;;;;;1.27;0.60;;;22.00;76.70;22.50;96011.00;;;;5092371;28;20195;-85
2022/09/08 02:45:49;;;;;;;2.73;0.77;;;22.00;77.50;22.50;95999.00;;;;5092450;28;20281;-85
2022/09/08 02:48:17;;;;;;;1.23;0.70;;;22.00;77.00;22.50;95998.00;;;;5074688;28;20230;-85
2022/09/08 02:50:46;;;;;;;0.93;0.50;;;22.00;77.00;22.50;95996.00;;;;5082205;28;20290;-85
2022/09/08 02:53:13;;;;;;;0.80;0.50;;;22.00;77.00;22.50;95990.00;;;;5080764;28;20222;-85
2022/09/08 02:55:41;;;;;;;0.57;0.50;;;22.00;76.90;22.50;95992.00;;;;5090972;28;20664;-86
2022/09/08 02:58:11;;;;;;;1.17;0.60;;;22.00;76.70;22.50;95992.00;;;;5084315;28;20214;-86
2022/09/08 03:00:39;;;;;;;0.67;0.50;;;22.00;76.60;22.40;95996.00;;;;5081487;28;20218;-85
2022/09/08 03:03:06;;;;;;;0.70;0.53;;;21.90;76.50;22.40;95995.00;;;;5077962;28;20565;-85
2022/09/08 03:05:34;;;;;;;0.60;0.40;;;21.90;76.30;22.40;95998.00;;;;5091350;28;20245;-85
2022/09/08 03:08:04;;;;;;;1.50;0.63;;;21.90;76.40;22.40;95992.00;;;;5092693;28;20448;-86
2022/09/08 03:10:32;;;;;;;0.60;0.60;;;21.90;76.70;22.40;95976.00;;;;5085013;28;20885;-85
2022/09/08 03:13:00;;;;;;;0.97;0.37;;;21.90;76.60;22.40;95965.00;;;;5084901;28;20195;-85
2022/09/08 03:15:31;;;;;;;0.50;0.40;;;21.90;76.80;22.40;95961.00;;;;5091731;28;20210;-86
2022/09/08 03:17:59;;;;;;;0.50;0.40;;;21.90;76.80;22.40;95963.00;;;;5092194;28;20211;-86
2022/09/08 03:20:27;;;;;;;0.60;0.60;;;21.80;76.70;22.40;95953.00;;;;5091583;28;20312;-86
2022/09/08 03:22:54;;;;;;;1.90;0.70;;;21.80;76.60;22.40;95947.00;;;;5078234;28;20234;-85
2022/09/08 03:25:22;;;;;;;0.70;0.40;;;21.80;76.60;22.30;95941.00;;;;5075425;28;20199;-85
2022/09/08 03:27:49;;;;;;;0.73;0.40;;;21.80;76.60;22.30;95931.00;;;;5088727;28;20222;-85
2022/09/08 03:30:18;;;;;;;0.70;0.50;;;21.80;76.60;22.30;95928.00;;;;5090230;28;20206;-85
2022/09/08 03:32:47;;;;;;;0.40;0.40;;;21.80;76.60;22.30;95928.00;;;;5091568;28;20632;-86
2022/09/08 03:35:18;;;;;;;0.77;0.40;;;21.80;76.60;22.30;95932.00;;;;5091656;28;20211;-85
2022/09/08 03:37:45;;;;;;;0.67;0.50;;;21.80;76.60;22.30;95939.00;;;;5092246;28;20301;-85
2022/09/08 03:40:17;;;;;;;0.40;0.40;;;21.80;76.60;22.30;95925.00;;;;5076880;28;20228;-85
2022/09/08 03:42:45;;;;;;;1.13;0.40;;;21.80;76.80;22.30;95920.00;;;;5091866;28;20604;-85
2022/09/08 03:45:16;;;;;;;0.30;0.30;;;21.80;76.70;22.30;95920.00;;;;5091952;28;20542;-85
2022/09/08 03:47:44;;;;;;;0.43;0.40;;;21.80;76.60;22.30;95921.00;;;;5091861;28;20247;-85
2022/09/08 03:50:13;;;;;;;0.33;0.33;;;21.80;76.70;22.30;95921.00;;;;5092218;28;20199;-85
2022/09/08 03:52:40;;;;;;;0.87;0.50;;;21.80;76.80;22.30;95919.00;;;;5092145;28;20278;-85
2022/09/08 03:55:10;;;;;;;0.47;0.47;;;21.80;76.80;22.30;95914.00;;;;5091954;28;20286;-85
2022/09/08 03:57:39;;;;;;;0.97;0.30;;;21.80;76.90;22.30;95907.00;;;;5092191;28;20315;-85
2022/09/08 04:00:12;;;;;;;0.30;0.30;;;21.80;77.00;22.30;95905.00;;;;5092067;28;20258;-86
2022/09/08 04:02:40;;;;;;;1.17;0.40;;;21.80;77.10;22.30;95899.00;;;;5079357;28;20629;-86
2022/09/08 04:05:08;;;;;;;1.07;0.50;;;21.80;77.00;22.30;95905.00;;;;5076821;28;20615;-86
2022/09/08 04:07:36;;;;;;;0.57;0.40;;;21.80;77.00;22.30;95905.00;;;;5088822;28;20723;-86
2022/09/08 04:10:06;;;;;;;1.23;0.50;;;21.80;77.00;22.30;95902.00;;;;5091855;28;20222;-85
2022/09/08 04:12:34;;;;;;;0.40;0.40;;;21.70;76.90;22.30;95889.00;;;;5082636;28;20196;-86
2022/09/08 04:15:02;;;;;;;0.33;0.30;;;21.80;76.90;22.30;95905.00;;;;5088735;28;20702;-86
2022/09/08 04:17:30;;;;;;;0.50;0.50;;;21.70;76.70;22.30;95900.00;;;;5092394;28;20258;-86
2022/09/08 04:19:57;;;;;;;0.50;0.40;;;21.70;76.70;22.30;95899.00;;;;5093031;28;20252;-86
2022/09/08 04:22:25;;;;;;;2.23;0.40;;;21.70;76.70;22.20;95890.00;;;;5090805;28;20285;-85
2022/09/08 04:24:53;;;;;;;0.60;0.60;;;21.70;76.70;22.20;95910.00;;;;5092610;28;20713;-86
2022/09/08 04:27:21;;;;;;;0.60;0.60;;;21.70;76.70;22.20;95901.00;;;;5093159;28;20300;-85
2022/09/08 04:29:50;;;;;;;2.00;0.80;;;21.70;76.80;22.20;95907.00;;;;5093036;28;20228;-85
2022/09/08 04:32:17;;;;;;;0.60;0.60;;;21.70;76.80;22.20;95912.00;;;;5085108;28;20260;-84
2022/09/08 04:34:49;;;;;;;0.90;0.70;;;21.70;76.80;22.20;95927.00;;;;5085581;28;20644;-83
2022/09/08 04:37:17;;;;;;;0.40;0.40;;;21.70;77.00;22.20;95940.00;;;;5083610;28;20220;-84
2022/09/08 04:39:44;;;;;;;0.47;0.47;;;21.70;77.00;22.20;95948.00;;;;5084121;28;20724;-84
2022/09/08 04:42:11;;;;;;;0.53;0.53;;;21.70;77.00;22.20;95953.00;;;;5092767;28;20277;-83
2022/09/08 04:44:38;;;;;;;0.67;0.50;;;21.70;77.00;22.20;95957.00;;;;5098533;28;20272;-84
2022/09/08 04:47:05;;;;;;;0.60;0.60;;;21.70;77.10;22.20;95959.00;;;;5093456;28;20596;-84
2022/09/08 04:49:32;;;;;;;0.90;0.67;;;21.70;77.10;22.20;95952.00;;;;5089602;28;20969;-84
2022/09/08 04:52:01;;;;;;;0.90;0.63;;;21.70;77.30;22.20;95945.00;;;;5084387;28;20258;-84
2022/09/08 04:54:28;;;;;;;0.60;0.60;;;21.70;77.20;22.20;95946.00;;;;5088182;28;20200;-84
2022/09/08 04:56:55;;;;;;;0.73;0.60;;;21.70;77.80;22.20;95953.00;;;;5078049;28;20726;-84
2022/09/08 04:59:24;;;;;;;0.70;0.70;;;21.70;77.00;22.20;95960.00;;;;5078130;28;20230;-84
2022/09/08 05:01:52;;;;;;;0.50;0.50;;;21.70;77.00;22.20;95974.00;;;;5083559;28;20206;-84
2022/09/08 05:04:19;;;;;;;0.60;0.60;;;21.70;76.90;22.20;95966.00;;;;5088696;28;20195;-84
2022/09/08 05:06:46;;;;;;;0.70;0.70;;;21.70;77.00;22.20;95962.00;;;;5086270;28;20197;-83
2022/09/08 05:09:15;;;;;;;0.50;0.50;;;21.70;77.00;22.20;95984.00;;;;5084075;28;21117;-84
2022/09/08 05:11:42;;;;;;;0.60;0.60;;;21.70;77.00;22.20;95979.00;;;;5096664;28;20202;-84
2022/09/08 05:14:09;;;;;;;2.00;0.70;;;21.70;76.90;22.10;95992.00;;;;5077725;28;20656;-83
2022/09/08 05:16:37;;;;;;;0.60;0.60;;;21.70;77.00;22.10;95990.00;;;;5086202;28;20202;-84
2022/09/08 05:19:07;;;;;;;1.17;0.60;;;21.70;76.90;22.10;95988.00;;;;5091393;28;20299;-84
2022/09/08 05:21:36;;;;;;;0.57;0.57;;;21.60;76.80;22.10;95994.00;;;;5093574;28;20613;-85
2022/09/08 05:24:05;;;;;;;0.60;0.60;;;21.60;76.90;22.10;96012.00;;;;5088503;28;20200;-84
2022/09/08 05:26:34;;;;;;;1.03;0.50;;;21.60;76.90;22.10;96016.00;;;;5091895;28;20191;-85
2022/09/08 05:29:03;;;;;;;0.90;0.60;;;21.60;77.00;22.10;96021.00;;;;5089317;28;20316;-89
2022/09/08 05:31:31;;;;;;;0.70;0.70;;;21.60;77.00;22.10;96023.00;;;;5090298;28;20211;-90
2022/09/08 05:33:59;;;;;;;1.40;0.50;;;21.60;77.10;22.10;96016.00;;;;5081827;28;20579;-89
2022/09/08 05:36:29;;;;;;;1.57;0.60;;;21.60;77.10;22.10;96013.00;;;;5089425;28;20703;-89
2022/09/08 05:38:56;;;;;;;0.50;0.50;;;21.60;77.10;22.10;96018.00;;;;5080278;28;20223;-89
2022/09/08 05:41:25;;;;;;;0.90;0.70;;;21.60;77.00;22.10;96028.00;;;;5087691;28;20215;-88
2022/09/08 05:43:54;;;;;;;0.40;0.40;;;21.60;77.00;22.10;96022.00;;;;5092602;28;20206;-89
2022/09/08 05:46:25;;;;;;;1.07;0.70;;;21.60;77.10;22.20;96021.00;;;;5078059;28;20670;-88
2022/09/08 05:48:54;;;;;;;0.50;0.50;;;21.60;77.10;22.20;96021.00;;;;5092855;28;20214;-89
2022/09/08 05:51:21;;;;;;;2.07;0.73;;;21.60;77.20;22.20;96024.00;;;;5085096;28;20223;-88
2022/09/08 05:53:49;;;;;;;0.80;0.50;;;21.60;77.10;22.20;96026.00;;;;5093074;28;20205;-90
2022/09/08 05:56:18;;;;;;;1.50;0.60;;;21.60;77.10;22.20;96027.00;;;;5093372;28;20302;-89
2022/09/08 05:58:53;;;;;;;0.80;0.47;;;21.60;77.20;22.20;96026.00;;;;5090308;28;20264;-89
2022/09/08 06:01:20;;;;;;;0.50;0.50;;;21.70;77.60;22.30;96034.00;;;;5081727;28;20207;-89
2022/09/08 06:03:52;;;;;;;2.10;0.50;;;21.70;77.70;22.30;96032.00;;;;5073588;28;20290;-89
2022/09/08 06:06:20;;;;;;;0.60;0.50;;;21.70;77.50;22.30;96032.00;;;;5077982;28;20226;-89
2022/09/08 06:08:48;;;;;;;23.90;13.20;;;21.70;77.60;22.30;96042.00;;;;5072184;28;20239;-89
2022/09/08 06:11:15;;;;;;;0.60;0.60;;;21.70;77.60;22.40;96028.00;;;;5071888;28;20206;-90
2022/09/08 06:13:42;;;;;;;1.00;0.43;;;21.70;77.50;22.40;96025.00;;;;5073162;28;20250;-89
2022/09/08 06:16:13;;;;;;;0.93;0.60;;;21.70;77.40;22.40;96020.00;;;;5082359;28;20613;-88
2022/09/08 06:18:43;;;;;;;0.77;0.70;;;21.80;78.20;22.40;96025.00;;;;5082519;28;20217;-88
2022/09/08 06:21:13;;;;;;;0.57;0.50;;;21.80;77.30;22.40;96019.00;;;;5072739;28;20714;-89
2022/09/08 06:23:41;;;;;;;0.60;0.40;;;21.80;77.30;22.40;96030.00;;;;5082547;28;20197;-89
2022/09/08 06:26:50;;;;;;;0.90;0.57;;;21.80;77.40;22.40;96032.00;;;;5072896;28;20198;-89
2022/09/08 06:29:38;;;;;;;0.50;0.43;;;21.80;77.50;22.50;96034.00;;;;5072870;28;20204;-89
2022/09/08 06:32:22;;;;;;;0.47;0.40;;;21.90;77.20;22.50;96048.00;;;;5080323;28;20212;-89
2022/09/08 06:34:55;;;;;;;0.70;0.70;;;21.90;77.60;22.50;96042.00;;;;5083940;28;20298;-90
2022/09/08 06:37:33;;;;;;;0.50;0.43;;;21.90;77.40;22.50;96048.00;;;;5092908;28;20224;-89
2022/09/08 06:40:10;;;;;;;0.30;0.30;;;21.90;77.60;22.50;96051.00;;;;5093097;28;20309;-89
2022/09/08 06:42:49;;;;;;;0.73;0.40;;;21.90;77.50;22.50;96048.00;;;;5093209;28;20191;-90
2022/09/08 06:45:23;;;;;;;0.70;0.40;;;21.90;77.40;22.50;96049.00;;;;5089841;28;20213;-90
2022/09/08 06:48:14;;;;;;;0.30;0.23;;;21.90;77.50;22.50;96058.00;;;;5093381;28;20219;-90
2022/09/08 06:50:56;;;;;;;0.63;0.40;;;21.90;77.60;22.50;96062.00;;;;5092977;28;20230;-90
2022/09/08 06:53:33;;;;;;;0.30;0.30;;;21.90;77.70;22.50;96059.00;;;;5083589;28;20205;-90
2022/09/08 06:56:13;;;;;;;0.33;0.20;;;21.90;77.60;22.50;96058.00;;;;5087888;28;20250;-91
2022/09/08 06:58:41;;;;;;;1.37;0.47;;;21.90;78.20;22.50;96063.00;;;;5093406;28;20280;-89
2022/09/08 07:01:22;;;;;;;0.93;0.40;;;21.90;77.30;22.40;96068.00;;;;5092087;28;20692;-90
2022/09/08 07:04:26;;;;;;;0.30;0.27;;;21.90;77.50;22.40;96072.00;;;;5083467;28;20222;-89
2022/09/08 07:07:01;;;;;;;0.80;0.43;;;21.90;77.80;22.40;96072.00;;;;5072593;28;20296;-89
2022/09/08 07:09:42;;;;;;;0.90;0.40;;;21.90;77.50;22.40;96075.00;;;;5072416;28;20214;-88
2022/09/08 07:12:34;;;;;;;0.40;0.40;;;21.90;77.60;22.40;96085.00;;;;5077107;28;20558;-90
2022/09/08 07:15:22;;;;;;;0.30;0.30;;;21.90;78.40;22.40;96094.00;;;;5079632;28;20286;-89
2022/09/08 07:17:57;;;;;;;0.27;0.23;;;21.80;77.30;22.30;96092.00;;;;5072335;28;20660;-88
2022/09/08 07:20:29;;;;;;;0.53;0.20;;;21.80;77.00;22.30;96094.00;;;;5076028;28;20211;-89
2022/09/08 07:23:02;;;;;;;0.20;0.20;;;21.80;76.70;22.20;96099.00;;;;5087778;28;20199;-90
2022/09/08 07:25:35;;;;;;;0.13;0.13;;;21.80;76.70;22.20;96100.00;;;;5089244;28;20289;-90
2022/09/08 07:28:07;;;;;;;0.20;0.20;;;21.70;76.70;22.20;96101.00;;;;5092136;28;20306;-90
2022/09/08 07:30:37;;;;;;;1.03;0.40;;;21.70;76.40;22.10;96118.00;;;;5092021;28;20278;-91
2022/09/08 07:33:16;;;;;;;0.40;0.20;;;21.70;76.40;22.10;96110.00;;;;5081271;28;20250;-90
2022/09/08 07:36:12;;;;;;;0.30;0.30;;;21.70;76.60;22.10;96117.00;;;;5080680;28;20267;-90
2022/09/08 07:38:48;;;;;;;0.13;0.13;;;21.70;76.70;22.10;96127.00;;;;5071244;28;20243;-90
2022/09/08 07:41:22;;;;;;;0.13;0.13;;;21.60;76.60;22.00;96122.00;;;;5089630;28;20758;-90
2022/09/08 07:43:54;;;;;;;0.57;0.27;;;21.60;76.40;22.00;96128.00;;;;5094324;28;20233;-90
2022/09/08 07:47:03;;;;;;;0.40;0.20;;;21.60;76.50;22.00;96122.00;;;;5092712;28;20213;-91
2022/09/08 07:49:38;;;;;;;0.80;0.30;;;21.60;77.00;21.90;96139.00;;;;5091174;28;20270;-91
2022/09/08 07:52:24;;;;;;;0.20;0.20;;;21.50;76.70;21.90;96138.00;;;;5092593;28;20245;-90
2022/09/08 07:55:07;;;;;;;0.30;0.20;;;21.50;77.10;21.90;96135.00;;;;5094469;28;20208;-91
2022/09/08 07:57:50;;;;;;;0.27;0.27;;;21.50;77.00;21.80;96137.00;;;;5092363;28;20216;-91
2022/09/08 08:00:22;;;;;;;0.30;0.20;;;21.40;77.30;21.80;96139.00;;;;5083667;28;20311;-90
2022/09/08 08:03:10;;;;;;;0.20;0.20;;;21.40;77.30;21.80;96137.00;;;;5092482;28;20277;-90
2022/09/08 08:05:46;;;;;;;1.13;0.40;;;21.40;78.00;21.80;96133.00;;;;5091535;28;20725;-91
2022/09/08 08:08:34;;;;;;;0.30;0.30;;;21.40;77.90;21.80;96135.00;;;;5086429;28;20715;-90
2022/09/08 08:11:11;;;;;;;0.20;0.20;;;21.30;78.20;21.70;96138.00;;;;5083262;28;20274;-90
2022/09/08 08:13:59;;;;;;;0.50;0.30;;;21.30;78.20;21.70;96138.00;;;;5075149;28;20271;-90
2022/09/08 08:16:42;;;;;;;0.30;0.20;;;21.30;78.60;21.70;96133.00;;;;5073093;28;20697;-90
2022/09/08 08:19:35;;;;;;;0.53;0.17;;;21.30;78.40;21.60;96138.00;;;;5075140;28;20792;-90
2022/09/08 08:22:19;;;;;;;0.50;0.30;;;21.20;78.30;21.60;96143.00;;;;5081189;28;20227;-89
2022/09/08 08:25:05;;;;;;;0.33;0.30;;;21.20;78.70;21.60;96131.00;;;;5083085;28;20199;-90
2022/09/08 08:27:44;;;;;;;0.43;0.27;;;21.20;79.70;21.60;96129.00;;;;5075087;28;20638;-89
2022/09/08 08:30:18;;;;;;;1.00;0.40;;;21.20;79.00;21.60;96132.00;;;;5090493;28;20199;-90
2022/09/08 08:32:54;;;;;;;0.20;0.20;;;21.10;79.20;21.60;96131.00;;;;5085954;28;20272;-90
2022/09/08 08:35:31;;;;;;;0.20;0.20;;;21.10;79.30;21.60;96123.00;;;;5078299;28;20291;-90
2022/09/08 08:38:01;;;;;;;0.53;0.50;;;21.10;79.40;21.60;96118.00;;;;5074783;28;20218;-90
2022/09/08 08:40:44;;;;;;;0.37;0.30;;;21.10;79.40;21.70;96114.00;;;;5074489;28;20234;-90
2022/09/08 08:43:57;;;;;;;0.30;0.23;;;21.10;79.80;21.70;96115.00;;;;5083320;28;20268;-89
2022/09/08 08:47:16;;;;;;;0.20;0.17;;;21.20;80.80;21.70;96107.00;;;;5074469;28;20778;-89
2022/09/08 08:50:29;;;;;;;1.33;0.20;;;21.20;80.50;21.80;96109.00;;;;5062841;28;20196;-89
2022/09/08 08:53:26;;;;;;;0.40;0.20;;;21.20;80.50;21.90;96107.00;;;;5075246;28;20305;-89
2022/09/08 08:56:08;;;;;;;2.17;0.40;;;21.30;80.50;21.90;96120.00;;;;5073959;28;20196;-90
2022/09/08 08:59:00;;;;;;;0.23;0.20;;;21.30;80.30;21.90;96116.00;;;;5074506;28;20229;-89
2022/09/08 09:02:14;;;;;;;0.17;0.17;;;21.30;80.40;22.00;96116.00;;;;5080025;28;20263;-90
2022/09/08 09:05:31;;;;;;;0.20;0.20;;;21.40;80.80;22.10;96120.00;;;;5088059;28;20203;-90
2022/09/08 09:08:50;;;;;;;0.30;0.20;;;21.40;80.80;22.20;96128.00;;;;5087816;28;20685;-90
2022/09/08 09:12:03;;;;;;;1.17;0.33;;;21.50;80.60;22.20;96136.00;;;;5094930;28;20294;-89
2022/09/08 09:15:02;;;;;;;0.17;0.17;;;21.60;80.50;22.30;96134.00;;;;5087955;28;20595;-90
2022/09/08 09:17:58;;;;;;;0.40;0.20;;;21.70;79.70;22.30;96131.00;;;;5077592;28;20220;-90
2022/09/08 09:20:56;;;;;;;0.20;0.20;;;21.70;79.90;22.30;96135.00;;;;5074365;28;20285;-90
2022/09/08 09:23:45;;;;;;;0.30;0.30;;;21.70;79.70;22.30;96138.00;;;;5082690;28;20183;-89
2022/09/08 09:26:20;;;;;;;0.30;0.30;;;21.70;79.60;22.30;96134.00;;;;5074306;28;20209;-90
2022/09/08 09:29:14;;;;;;;1.13;0.27;;;21.70;79.00;22.30;96130.00;;;;5073025;28;20615;-89
2022/09/08 09:32:30;;;;;;;0.20;0.20;;;21.80;79.30;22.30;96139.00;;;;5080914;28;20650;-89
2022/09/08 09:35:22;;;;;;;0.60;0.30;;;21.80;79.60;22.40;96134.00;;;;5078135;28;20211;-89
2022/09/08 09:38:47;;;;;;;0.20;0.20;;;21.80;79.60;22.50;96134.00;;;;5094084;28;20615;-89
2022/09/08 09:42:04;;;;;;;0.20;0.20;;;21.80;79.70;22.60;96126.00;;;;5093287;28;20699;-90
2022/09/08 09:45:17;;;;;;;0.40;0.40;;;21.90;79.40;22.70;96120.00;;;;5084628;28;20667;-89
2022/09/08 09:48:15;;;;;;;0.30;0.30;;;22.00;79.90;22.80;96130.00;;;;5073701;28;20215;-90
2022/09/08 09:51:08;;;;;;;0.23;0.10;;;22.10;79.60;23.00;96131.00;;;;5074532;28;20275;-89
2022/09/08 09:54:11;;;;;;;0.20;0.20;;;22.10;80.10;23.10;96124.00;;;;5084123;28;20276;-89
2022/09/08 09:57:20;;;;;;;0.70;0.40;;;22.30;80.50;23.40;96117.00;;;;5093651;28;20267;-90
2022/09/08 10:00:13;;;;;;;0.63;0.40;;;22.30;79.60;23.50;96121.00;;;;5094023;28;20199;-89
2022/09/08 10:03:42;;;;;;;0.87;0.47;;;22.60;79.60;23.70;96130.00;;;;5084373;28;20225;-90
2022/09/08 10:06:26;;;;;;;0.30;0.30;;;22.70;80.40;23.90;96133.00;;;;5058325;28;20574;-89
2022/09/08 10:09:42;;;;;;;0.20;0.20;;;22.90;80.00;24.10;96142.00;;;;5084841;28;20704;-90
2022/09/08 10:12:48;;;;;;;0.20;0.20;;;23.00;79.40;24.30;96134.00;;;;5080090;28;20286;-89
2022/09/08 10:16:17;;;;;;;0.30;0.20;;;23.20;79.20;24.50;96132.00;;;;5093851;28;20589;-90
2022/09/08 10:19:32;;;;;;;0.50;0.20;;;23.40;78.80;24.70;96143.00;;;;5084834;28;20218;-90
2022/09/08 10:22:54;;;;;;;0.20;0.20;;;23.60;77.90;24.80;96146.00;;;;5074597;28;20230;-90
2022/09/08 10:25:56;;;;;;;0.20;0.20;;;23.80;77.30;24.90;96149.00;;;;5073335;28;20211;-90
2022/09/08 10:28:58;;;;;;;0.67;0.10;;;23.90;76.20;24.90;96151.00;;;;5076089;28;20295;-90
2022/09/08 10:32:12;;;;;;;0.67;0.30;;;24.00;74.60;24.90;96146.00;;;;5090987;28;20321;-90
2022/09/08 10:35:35;;;;;;;0.30;0.30;;;24.10;74.00;24.80;96143.00;;;;5061285;28;20203;-91
2022/09/08 10:38:56;;;;;;;0.30;0.20;;;24.10;73.40;24.80;96146.00;;;;5096068;28;20575;-90
2022/09/08 10:42:32;;;;;;;0.10;0.10;;;24.10;72.80;24.80;96143.00;;;;5095417;28;20227;-90
2022/09/08 10:45:36;;;;;;;0.37;0.20;;;24.10;72.50;24.80;96142.00;;;;5084028;28;20207;-90
2022/09/08 10:48:44;;;;;;;0.17;0.13;;;24.10;71.90;24.80;96135.00;;;;5094095;28;20213;-92
2022/09/08 10:52:07;;;;;;;0.43;0.20;;;24.10;72.10;24.90;96132.00;;;;5095777;28;20195;-91
2022/09/08 10:55:28;;;;;;;0.60;0.20;;;24.10;71.70;24.90;96136.00;;;;5078159;28;20267;-90
2022/09/08 10:58:49;;;;;;;0.10;0.10;;;24.20;71.80;24.90;96140.00;;;;5086098;28;20226;-90
2022/09/08 11:02:21;;;;;;;0.27;0.27;;;24.20;71.40;24.90;96151.00;;;;5074792;28;20224;-90
2022/09/08 11:05:41;;;;;;;0.50;0.20;;;24.20;70.10;24.90;96150.00;;;;5075696;28;20225;-90
2022/09/08 11:08:56;;;;;;;0.10;0.10;;;24.20;70.10;24.90;96143.00;;;;5084657;28;20225;-90
2022/09/08 11:11:56;;;;;;;0.17;0.17;;;24.20;70.00;24.90;96130.00;;;;5097638;28;20216;-90
2022/09/08 11:15:00;;;;;;;0.20;0.10;;;24.20;69.70;24.90;96141.00;;;;5102529;28;20203;-91
2022/09/08 11:17:36;;;;;;;0.23;0.23;;;24.20;69.90;24.80;96136.00;;;;5101668;28;20209;-91
2022/09/08 11:20:12;;;;;;;0.40;0.40;;;24.10;69.80;24.80;96143.00;;;;5101799;28;20273;-91
2022/09/08 11:22:55;;;;;;;0.30;0.10;;;24.10;69.30;24.70;96144.00;;;;5091685;28;20276;-90
2022/09/08 11:26:13;;;;;;;0.33;0.30;;;24.10;69.40;24.70;96136.00;;;;5095245;28;20688;-90
2022/09/08 11:28:57;;;;;;;0.20;0.20;;;24.10;68.70;24.60;96155.00;;;;5024875;28;20226;-90
2022/09/08 11:31:44;;;;;;;0.10;0.10;;;24.00;68.70;24.60;96154.00;;;;5093892;28;20667;-91
2022/09/08 11:34:39;;;;;;;0.20;0.20;;;24.00;69.00;24.50;96152.00;;;;5095123;28;20574;-90
2022/09/08 11:37:51;;;;;;;0.10;0.10;;;23.90;68.90;24.50;96145.00;;;;5096251;28;20215;-91
2022/09/08 11:41:23;;;;;;;0.30;0.30;;;23.90;69.10;24.50;96162.00;;;;5073064;28;20287;-91
2022/09/08 11:44:29;;;;;;;0.23;0.23;;;23.90;68.50;24.40;96164.00;;;;5064805;28;20203;-91
2022/09/08 11:47:26;;;;;;;0.40;0.20;;;23.80;68.90;24.40;96156.00;;;;5094059;28;20290;-90
2022/09/08 11:50:39;;;;;;;0.20;0.20;;;23.80;68.70;24.40;96151.00;;;;5077919;28;20197;-88
2022/09/08 11:53:50;;;;;;;0.20;0.20;;;23.80;69.20;24.50;96169.00;;;;5074314;28;20248;-89
2022/09/08 11:56:56;;;;;;;0.20;0.20;;;23.80;70.20;24.50;96177.00;;;;5094160;28;20204;-89
2022/09/08 11:59:50;;;;;;;0.40;0.27;;;23.80;69.20;24.50;96178.00;;;;5085643;28;20196;-90
2022/09/08 12:02:50;;;;;;;0.20;0.17;;;23.80;68.90;24.50;96171.00;;;;5075343;28;20327;-91